ルアンダ の空港の天気 - METARとTAF

ルアンダ国際空港 ( FNLU / LAD ) - アンゴラ ルアンダ
飛行場実況気象(Metar)
観測時間06/17 20:00 WAT (06/17 19:00 UTC)
風向・風速南 5m/s
視程10km以上
天気現象
少しの雲 雲底高度 640m
気温23℃
湿度83%
気圧1013hPa
METARFNLU 171900Z 17010KT 9999 FEW021 23/20 Q1013 NOSIG
過去の天気等 Google飛行場航空写真 Wunderground天気予報

過去48時間のMETAR

飛行場予報(TAF)
発表時間: 6/17 18:00 WAT (6/17 17:00 UTC)
予報対象時間: 17日19時 WAT ~ 19日1時 WAT
風向・風速西南西 5m/s
視程9000m
少しの雲 雲底高度 610m
18日2時 WAT ~ 18日4時 WAT に徐々に
風向・風速南南東 4m/s
視程8000m
全天の4割程度の雲 雲底高度 460m
18日5時 WAT ~ 18日9時 WAT に 確率 30% で一時的に
風向・風速不定 2m/s
視程5000m
天気現象もや
18日11時 WAT ~ 18日15時 WAT に 確率 40% で一時的に
視程10km以上
なし
TAF FNLU 171700Z 1718/1824 24009KT 9000 FEW020
BECMG 1801/1803 16007KT 8000 SCT015
PROB30 TEMPO 1804/1808 VRB03KT 5000 BR
PROB40 TEMPO 1810/1814 CAVOK